Time;durP1;ratioP1;P1;durP2;ratioP2;P2;SDS_P1;SDS_P2;PMS_P1;PMS_P2;Temp;Humidity;BMP_temperature;BMP_pressure;BME280_temperature;BME280_humidity;BME280_pressure;Samples;Min_cycle;Max_cycle;Signal;HPM_P1;HPM_P2
2021/09/07 00:01:51;;;;;;;15.02;8.25;;;16.70;99.90;;;;;;5047908;28;20029;-73
2021/09/07 00:04:17;;;;;;;16.70;8.48;;;16.90;99.90;;;;;;5043776;28;20033;-72
2021/09/07 00:06:43;;;;;;;15.70;8.32;;;16.70;99.90;;;;;;5046328;28;20106;-72
2021/09/07 00:09:08;;;;;;;14.55;8.00;;;16.60;99.90;;;;;;5047193;28;20471;-71
2021/09/07 00:11:34;;;;;;;19.00;8.27;;;16.70;99.90;;;;;;5048629;28;20036;-72
2021/09/07 00:13:59;;;;;;;14.00;7.60;;;16.70;99.90;;;;;;5055130;28;20025;-72
2021/09/07 00:16:25;;;;;;;13.52;7.72;;;16.60;99.90;;;;;;5044184;28;20308;-72
2021/09/07 00:18:51;;;;;;;12.88;7.70;;;16.70;99.90;;;;;;5040932;28;20042;-73
2021/09/07 00:21:16;;;;;;;16.45;8.50;;;16.90;99.90;;;;;;5046994;28;20044;-72
2021/09/07 00:23:42;;;;;;;14.00;8.00;;;16.60;99.90;;;;;;5044538;28;20024;-72
2021/09/07 00:26:07;;;;;;;13.73;7.38;;;16.70;99.90;;;;;;5034718;28;20028;-72
2021/09/07 00:28:32;;;;;;;13.35;7.15;;;16.70;99.90;;;;;;5045393;28;20025;-72
2021/09/07 00:30:58;;;;;;;14.13;8.40;;;16.60;99.90;;;;;;5047585;28;20075;-72
2021/09/07 00:33:23;;;;;;;14.98;8.05;;;16.70;99.90;;;;;;5045030;28;20392;-72
2021/09/07 00:35:49;;;;;;;13.32;7.72;;;16.80;99.90;;;;;;5047920;28;20024;-72
2021/09/07 00:38:14;;;;;;;15.65;7.65;;;16.70;99.90;;;;;;5038999;28;20096;-72
2021/09/07 00:40:40;;;;;;;15.38;7.13;;;16.80;99.90;;;;;;5052528;28;20043;-72
2021/09/07 00:43:05;;;;;;;13.75;7.80;;;16.50;99.90;;;;;;5045367;28;20033;-73
2021/09/07 00:45:31;;;;;;;15.45;7.32;;;16.60;99.90;;;;;;5048924;28;20120;-72
2021/09/07 00:47:56;;;;;;;12.95;8.05;;;16.60;99.90;;;;;;5037466;28;20434;-73
2021/09/07 00:50:23;;;;;;;14.27;8.07;;;16.50;99.90;;;;;;5051125;28;20025;-73
2021/09/07 00:52:50;;;;;;;14.95;7.82;;;16.50;99.90;;;;;;5056887;28;20034;-73
2021/09/07 00:55:16;;;;;;;17.80;8.07;;;16.60;99.90;;;;;;5052691;28;20229;-73
2021/09/07 00:57:44;;;;;;;18.38;7.65;;;16.80;99.90;;;;;;5044591;28;20034;-73
2021/09/07 01:00:10;;;;;;;14.13;7.93;;;16.50;99.90;;;;;;5045191;28;20132;-73
2021/09/07 01:02:37;;;;;;;14.85;7.50;;;16.70;99.90;;;;;;5046578;28;20241;-73
2021/09/07 01:05:04;;;;;;;13.48;7.68;;;16.80;99.90;;;;;;5036007;28;20029;-73
2021/09/07 01:07:32;;;;;;;14.45;7.78;;;16.70;99.90;;;;;;5045235;28;20020;-73
2021/09/07 01:09:58;;;;;;;14.00;8.07;;;16.70;99.90;;;;;;5042856;28;20551;-73
2021/09/07 01:12:23;;;;;;;17.63;7.70;;;16.60;99.90;;;;;;5049386;28;20036;-73
2021/09/07 01:14:49;;;;;;;15.40;7.88;;;16.60;99.90;;;;;;5056331;28;20036;-73
2021/09/07 01:17:17;;;;;;;12.90;7.70;;;16.50;99.90;;;;;;5044785;28;20025;-73
2021/09/07 01:19:45;;;;;;;14.63;8.13;;;16.60;99.90;;;;;;5045344;28;20057;-73
2021/09/07 01:22:11;;;;;;;16.23;8.55;;;16.70;99.90;;;;;;5043890;28;20025;-73
2021/09/07 01:24:37;;;;;;;16.38;9.27;;;16.60;99.90;;;;;;5049392;28;20094;-73
2021/09/07 01:27:05;;;;;;;15.50;8.23;;;16.50;99.90;;;;;;5047032;28;20483;-74
2021/09/07 01:29:33;;;;;;;18.48;9.27;;;16.50;99.90;;;;;;5038112;28;20214;-73
2021/09/07 01:31:59;;;;;;;16.88;7.95;;;16.40;99.90;;;;;;5050607;28;20387;-73
2021/09/07 01:34:25;;;;;;;19.60;8.60;;;16.40;99.90;;;;;;5044631;28;20111;-73
2021/09/07 01:36:51;;;;;;;15.98;8.70;;;16.40;99.90;;;;;;5046815;28;20076;-73
2021/09/07 01:39:18;;;;;;;15.27;8.48;;;16.40;99.90;;;;;;5044059;28;20033;-73
2021/09/07 01:41:44;;;;;;;18.55;8.90;;;16.30;99.90;;;;;;5049790;28;20039;-73
2021/09/07 01:44:10;;;;;;;18.60;8.80;;;16.30;99.90;;;;;;5037420;28;20468;-73
2021/09/07 01:46:36;;;;;;;18.30;8.40;;;16.30;99.90;;;;;;5047512;28;20022;-73
2021/09/07 01:49:01;;;;;;;18.45;8.48;;;16.20;99.90;;;;;;5051985;28;20504;-74
2021/09/07 01:51:27;;;;;;;17.55;8.60;;;16.20;99.90;;;;;;5045682;28;20483;-73
2021/09/07 01:53:54;;;;;;;19.00;8.88;;;16.20;99.90;;;;;;5049870;28;20573;-73
2021/09/07 01:56:20;;;;;;;16.33;9.50;;;16.00;99.90;;;;;;5038704;28;20029;-74
2021/09/07 01:58:45;;;;;;;17.30;9.32;;;16.00;99.90;;;;;;5041601;28;20017;-73
2021/09/07 02:01:11;;;;;;;21.52;8.85;;;16.00;99.90;;;;;;5047564;28;20109;-73
2021/09/07 02:03:37;;;;;;;14.82;7.75;;;16.10;99.90;;;;;;5045450;28;20070;-73
2021/09/07 02:06:08;;;;;;;17.00;9.13;;;15.90;99.90;;;;;;5039999;28;20013;-73
2021/09/07 02:08:34;;;;;;;19.67;8.73;;;15.80;99.90;;;;;;5041695;28;20067;-73
2021/09/07 02:10:59;;;;;;;15.77;9.05;;;15.60;99.90;;;;;;5054525;28;20052;-73
2021/09/07 02:13:25;;;;;;;14.82;7.82;;;15.70;99.90;;;;;;5036073;28;20029;-73
2021/09/07 02:15:50;;;;;;;15.68;9.00;;;15.60;99.90;;;;;;5049655;28;20462;-73
2021/09/07 02:18:16;;;;;;;16.45;8.52;;;15.60;99.90;;;;;;5049419;28;20025;-73
2021/09/07 02:20:41;;;;;;;19.10;9.18;;;15.60;99.90;;;;;;5054483;28;20052;-73
2021/09/07 02:23:07;;;;;;;14.98;8.43;;;15.50;99.90;;;;;;5050013;28;20380;-73
2021/09/07 02:25:33;;;;;;;23.65;9.35;;;15.60;99.90;;;;;;5050391;28;20495;-73
2021/09/07 02:27:59;;;;;;;13.65;8.32;;;15.40;99.90;;;;;;5056931;28;20052;-73
2021/09/07 02:30:25;;;;;;;14.52;7.88;;;15.70;99.90;;;;;;5055117;28;20049;-73
2021/09/07 02:32:51;;;;;;;14.70;8.13;;;15.30;99.90;;;;;;5044671;28;20490;-74
2021/09/07 02:35:16;;;;;;;18.38;8.82;;;15.50;99.90;;;;;;5046237;28;20025;-73
2021/09/07 02:37:41;;;;;;;18.63;8.32;;;15.40;99.90;;;;;;5054863;28;20021;-73
2021/09/07 02:40:08;;;;;;;15.38;8.68;;;15.20;99.90;;;;;;5048709;28;20033;-73
2021/09/07 02:42:33;;;;;;;17.35;8.88;;;15.20;99.90;;;;;;5049274;28;20368;-73
2021/09/07 02:44:58;;;;;;;16.45;8.52;;;15.20;99.90;;;;;;5049788;28;20078;-73
2021/09/07 02:47:24;;;;;;;15.38;8.38;;;15.10;99.90;;;;;;5049462;28;20118;-73
2021/09/07 02:49:49;;;;;;;13.52;7.63;;;15.30;99.90;;;;;;5059220;28;20063;-73
2021/09/07 02:52:15;;;;;;;17.10;8.88;;;14.70;99.90;;;;;;5044213;28;20558;-74
2021/09/07 02:54:40;;;;;;;14.55;8.07;;;15.10;99.90;;;;;;5048782;28;20086;-73
2021/09/07 02:57:06;;;;;;;16.90;8.35;;;14.90;99.90;;;;;;5047624;28;20032;-73
2021/09/07 02:59:31;;;;;;;17.08;8.68;;;14.90;99.90;;;;;;5043405;28;20431;-73
2021/09/07 03:01:57;;;;;;;15.32;8.27;;;14.90;99.90;;;;;;5044614;28;20040;-73
2021/09/07 03:04:22;;;;;;;15.50;8.05;;;14.90;99.90;;;;;;5047492;28;20056;-73
2021/09/07 03:06:48;;;;;;;18.48;8.73;;;14.90;99.90;;;;;;5043617;28;20494;-73
2021/09/07 03:09:14;;;;;;;16.33;8.15;;;14.90;99.90;;;;;;5047681;28;20025;-72
2021/09/07 03:11:40;;;;;;;14.98;8.35;;;14.70;99.90;;;;;;5045240;28;20503;-73
2021/09/07 03:14:05;;;;;;;18.20;9.15;;;14.70;99.90;;;;;;5045100;28;20021;-73
2021/09/07 03:16:33;;;;;;;14.57;8.43;;;14.60;99.90;;;;;;5052475;28;20033;-73
2021/09/07 03:18:59;;;;;;;20.98;8.95;;;14.60;99.90;;;;;;5053326;28;20053;-73
2021/09/07 03:21:25;;;;;;;14.35;8.00;;;14.70;99.90;;;;;;5048262;28;20040;-73
2021/09/07 03:23:50;;;;;;;13.90;8.07;;;14.50;99.90;;;;;;5052218;28;20108;-73
2021/09/07 03:26:16;;;;;;;14.05;8.10;;;14.60;99.90;;;;;;5050796;28;20024;-73
2021/09/07 03:28:41;;;;;;;17.17;8.05;;;14.50;99.90;;;;;;5051740;28;20017;-73
2021/09/07 03:31:07;;;;;;;14.60;8.32;;;14.40;99.90;;;;;;5048997;28;20020;-73
2021/09/07 03:33:32;;;;;;;17.73;8.07;;;14.40;99.90;;;;;;5048985;28;20028;-73
2021/09/07 03:35:58;;;;;;;14.63;7.85;;;14.40;99.90;;;;;;5050624;28;20469;-73
2021/09/07 03:38:24;;;;;;;17.70;7.78;;;14.50;99.90;;;;;;5035603;28;20037;-72
2021/09/07 03:40:49;;;;;;;16.02;8.15;;;14.40;99.90;;;;;;5043521;28;20065;-72
2021/09/07 03:43:14;;;;;;;13.73;7.50;;;14.50;99.90;;;;;;5042850;28;20119;-73
2021/09/07 03:45:41;;;;;;;14.68;8.15;;;14.40;99.90;;;;;;5049795;28;20025;-73
2021/09/07 03:48:06;;;;;;;15.55;7.93;;;14.20;99.90;;;;;;5047090;28;20033;-73
2021/09/07 03:50:32;;;;;;;16.40;8.68;;;14.30;99.90;;;;;;5046673;28;20060;-73
2021/09/07 03:52:57;;;;;;;15.00;8.95;;;14.20;99.90;;;;;;5046381;28;20033;-73
2021/09/07 03:55:23;;;;;;;18.17;8.70;;;14.20;99.90;;;;;;5049495;28;20025;-73
2021/09/07 03:57:48;;;;;;;15.60;8.52;;;14.30;99.90;;;;;;5046857;28;20162;-73
2021/09/07 04:00:16;;;;;;;14.77;8.57;;;14.20;99.90;;;;;;5045453;28;20707;-72
2021/09/07 04:02:41;;;;;;;15.60;8.43;;;14.10;99.90;;;;;;5032986;28;20033;-73
2021/09/07 04:05:08;;;;;;;15.75;8.07;;;14.30;99.90;;;;;;5048100;28;20031;-74
2021/09/07 04:07:33;;;;;;;18.20;8.63;;;14.10;99.90;;;;;;5035547;28;20364;-72
2021/09/07 04:09:59;;;;;;;17.33;8.18;;;14.10;99.90;;;;;;5044459;28;20036;-73
2021/09/07 04:12:25;;;;;;;18.95;9.07;;;14.00;99.90;;;;;;5046494;28;20120;-73
2021/09/07 04:14:50;;;;;;;19.88;8.75;;;14.10;99.90;;;;;;5044521;28;20128;-73
2021/09/07 04:17:16;;;;;;;19.30;10.25;;;14.10;99.90;;;;;;5048243;28;20488;-73
2021/09/07 04:19:41;;;;;;;17.48;9.43;;;14.20;99.90;;;;;;5054491;28;20053;-70
2021/09/07 04:22:07;;;;;;;17.50;9.40;;;14.10;99.90;;;;;;5052642;28;20032;-71
2021/09/07 04:24:32;;;;;;;17.83;9.48;;;14.00;99.90;;;;;;5046352;28;20102;-70
2021/09/07 04:26:58;;;;;;;18.02;9.55;;;14.10;99.90;;;;;;5042317;28;20017;-71
2021/09/07 04:29:24;;;;;;;19.63;10.02;;;14.20;99.90;;;;;;5039782;28;20481;-70
2021/09/07 04:31:49;;;;;;;17.45;9.85;;;14.10;99.90;;;;;;5044876;28;20023;-70
2021/09/07 04:34:15;;;;;;;21.73;10.85;;;14.00;99.90;;;;;;5045459;28;20083;-70
2021/09/07 04:36:40;;;;;;;19.80;9.77;;;14.10;99.90;;;;;;5038699;28;20052;-71
2021/09/07 04:39:06;;;;;;;22.17;10.57;;;14.10;99.90;;;;;;5042946;28;20029;-71
2021/09/07 04:41:31;;;;;;;20.75;10.65;;;14.30;99.90;;;;;;5049297;28;20036;-70
2021/09/07 04:43:57;;;;;;;21.73;10.93;;;14.30;99.90;;;;;;5049065;28;20447;-70
2021/09/07 04:46:23;;;;;;;19.25;10.10;;;14.40;99.90;;;;;;5048089;28;20108;-70
2021/09/07 04:48:54;;;;;;;19.75;10.10;;;14.40;99.90;;;;;;5044926;28;20112;-70
2021/09/07 04:51:19;;;;;;;17.92;9.88;;;14.30;99.90;;;;;;5046133;28;20122;-70
2021/09/07 04:53:45;;;;;;;21.23;10.82;;;14.40;99.90;;;;;;5048349;28;20060;-70
2021/09/07 04:56:13;;;;;;;19.67;10.05;;;14.40;99.90;;;;;;5053828;28;20025;-71
2021/09/07 04:58:38;;;;;;;19.17;10.27;;;14.60;99.90;;;;;;5048247;28;20464;-71
2021/09/07 05:01:04;;;;;;;19.02;10.35;;;14.80;99.90;;;;;;5060159;28;20029;-72
2021/09/07 05:03:29;;;;;;;20.15;10.02;;;14.70;99.90;;;;;;5057688;28;20089;-72
2021/09/07 05:05:55;;;;;;;21.85;9.85;;;14.70;99.90;;;;;;5054960;28;20419;-72
2021/09/07 05:08:20;;;;;;;22.55;10.55;;;14.70;99.90;;;;;;5055519;28;20028;-71
2021/09/07 05:10:46;;;;;;;23.70;11.05;;;14.70;99.90;;;;;;5050892;28;20035;-72
2021/09/07 05:13:11;;;;;;;20.60;10.75;;;14.80;99.90;;;;;;5043477;28;20628;-71
2021/09/07 05:15:37;;;;;;;16.15;9.57;;;14.80;99.90;;;;;;5046511;28;20032;-71
2021/09/07 05:18:02;;;;;;;18.98;9.82;;;14.80;99.90;;;;;;5044863;28;20032;-71
2021/09/07 05:20:27;;;;;;;27.15;11.25;;;15.00;99.90;;;;;;5051288;28;20390;-72
2021/09/07 05:22:53;;;;;;;19.67;10.20;;;14.90;99.90;;;;;;5048666;28;20028;-71
2021/09/07 05:25:19;;;;;;;20.05;11.13;;;14.70;99.90;;;;;;5050830;28;20051;-70
2021/09/07 05:27:44;;;;;;;21.33;10.70;;;14.90;99.90;;;;;;5045436;28;20028;-70
2021/09/07 05:30:12;;;;;;;19.63;10.30;;;14.80;99.90;;;;;;5041699;28;20064;-70
2021/09/07 05:32:38;;;;;;;19.85;10.25;;;14.80;99.90;;;;;;5048265;28;20036;-71
2021/09/07 05:35:04;;;;;;;21.13;10.88;;;15.00;99.90;;;;;;5049518;28;20037;-71
2021/09/07 05:37:30;;;;;;;21.42;10.85;;;14.80;99.90;;;;;;5048107;28;20037;-70
2021/09/07 05:39:55;;;;;;;24.45;10.48;;;14.90;99.90;;;;;;5049688;28;20105;-71
2021/09/07 05:42:21;;;;;;;20.40;11.02;;;14.80;99.90;;;;;;5046596;28;20079;-70
2021/09/07 05:44:47;;;;;;;22.42;10.48;;;15.00;99.90;;;;;;5050442;28;20032;-71
2021/09/07 05:47:12;;;;;;;25.92;10.48;;;15.00;99.90;;;;;;5050552;28;20467;-71
2021/09/07 05:49:38;;;;;;;16.60;9.88;;;15.10;99.90;;;;;;5050012;28;20090;-70
2021/09/07 05:52:09;;;;;;;17.75;9.73;;;15.30;99.90;;;;;;5050601;28;20112;-71
2021/09/07 05:54:34;;;;;;;23.10;10.80;;;15.00;99.90;;;;;;5050927;28;20100;-71
2021/09/07 05:57:00;;;;;;;20.17;10.60;;;15.10;99.90;;;;;;5050470;28;20107;-70
2021/09/07 05:59:26;;;;;;;18.23;9.20;;;15.30;99.90;;;;;;5051108;28;20025;-70
2021/09/07 06:01:51;;;;;;;20.92;9.82;;;15.30;99.90;;;;;;5049697;28;20485;-71
2021/09/07 06:04:17;;;;;;;18.67;10.48;;;15.20;99.90;;;;;;5049295;28;20391;-71
2021/09/07 06:06:42;;;;;;;19.73;9.82;;;15.10;99.90;;;;;;5050061;28;20021;-71
2021/09/07 06:09:07;;;;;;;23.67;10.75;;;15.20;99.90;;;;;;5049577;28;20017;-71
2021/09/07 06:11:33;;;;;;;21.40;10.82;;;15.30;99.90;;;;;;5050150;28;20393;-71
2021/09/07 06:13:58;;;;;;;19.80;10.25;;;15.30;99.90;;;;;;5031883;28;20132;-71
2021/09/07 06:16:24;;;;;;;21.88;9.68;;;15.50;99.90;;;;;;5050227;28;20079;-71
2021/09/07 06:18:49;;;;;;;18.67;9.45;;;15.50;99.90;;;;;;5048644;28;20054;-71
2021/09/07 06:21:15;;;;;;;17.38;9.50;;;15.50;99.90;;;;;;5048593;28;20079;-71
2021/09/07 06:23:41;;;;;;;16.67;10.02;;;15.60;99.90;;;;;;5050535;28;20075;-71
2021/09/07 06:26:06;;;;;;;17.48;8.85;;;15.90;99.90;;;;;;5049972;28;20482;-71
2021/09/07 06:28:32;;;;;;;18.30;9.15;;;15.60;99.90;;;;;;5048924;28;20025;-71
2021/09/07 06:30:57;;;;;;;14.35;8.50;;;15.70;99.90;;;;;;5049796;28;20246;-71
2021/09/07 06:33:23;;;;;;;14.38;8.18;;;15.70;99.90;;;;;;5049131;28;20497;-71
2021/09/07 06:35:48;;;;;;;18.73;8.60;;;15.80;99.90;;;;;;5049532;28;20027;-72
2021/09/07 06:38:14;;;;;;;14.05;8.10;;;15.70;99.90;;;;;;5049816;28;20475;-71
2021/09/07 06:40:40;;;;;;;20.33;8.60;;;15.60;99.90;;;;;;5049751;28;20075;-71
2021/09/07 06:43:06;;;;;;;18.65;9.38;;;15.70;99.90;;;;;;5049642;28;20143;-71
2021/09/07 06:45:32;;;;;;;16.55;8.50;;;15.60;99.90;;;;;;5049410;28;20481;-71
2021/09/07 06:47:57;;;;;;;17.05;7.95;;;15.70;99.90;;;;;;5049522;28;20048;-71
2021/09/07 06:50:23;;;;;;;16.90;8.15;;;15.70;99.90;;;;;;5048978;28;20060;-71
2021/09/07 06:52:48;;;;;;;17.45;8.48;;;15.90;99.90;;;;;;5049850;28;20364;-72
2021/09/07 06:55:14;;;;;;;15.05;7.72;;;15.70;99.90;;;;;;5049054;28;20116;-71
2021/09/07 06:57:40;;;;;;;15.60;7.30;;;15.90;99.90;;;;;;5049432;28;20029;-71
2021/09/07 07:00:09;;;;;;;11.77;6.68;;;16.00;99.90;;;;;;5048710;28;20119;-71
2021/09/07 07:02:52;;;;;;;11.80;7.32;;;15.90;99.90;;;;;;5048697;28;20032;-71
2021/09/07 07:05:18;;;;;;;16.33;7.80;;;16.10;99.90;;;;;;5048868;28;20438;-71
2021/09/07 07:07:43;;;;;;;15.50;7.30;;;16.00;99.90;;;;;;5049636;28;20028;-71
2021/09/07 07:10:09;;;;;;;11.88;6.90;;;16.10;99.90;;;;;;5048771;28;20037;-71
2021/09/07 07:12:35;;;;;;;13.93;7.55;;;16.10;99.90;;;;;;5048535;28;20032;-71
2021/09/07 07:15:00;;;;;;;12.52;6.82;;;16.20;99.90;;;;;;5048894;28;20107;-71
2021/09/07 07:17:26;;;;;;;11.82;6.63;;;16.10;99.90;;;;;;5049250;28;20070;-70
2021/09/07 07:19:51;;;;;;;17.13;8.50;;;16.20;99.90;;;;;;5047577;28;20514;-70
2021/09/07 07:22:19;;;;;;;11.52;6.53;;;16.30;99.90;;;;;;5048444;28;20491;-71
2021/09/07 07:24:45;;;;;;;10.15;6.15;;;16.30;99.90;;;;;;5048953;28;20029;-71
2021/09/07 07:27:10;;;;;;;13.05;6.20;;;16.30;99.90;;;;;;5047402;28;20021;-71
2021/09/07 07:29:36;;;;;;;12.85;5.72;;;16.30;99.90;;;;;;5048410;28;20799;-70
2021/09/07 07:32:01;;;;;;;12.32;6.00;;;16.40;99.90;;;;;;5047730;28;20025;-71
2021/09/07 07:34:27;;;;;;;11.93;5.63;;;16.40;99.90;;;;;;5048128;28;20040;-71
2021/09/07 07:36:55;;;;;;;17.48;6.07;;;16.40;99.90;;;;;;5048919;28;20365;-71
2021/09/07 07:39:21;;;;;;;10.93;5.80;;;16.50;99.90;;;;;;5047436;28;20033;-71
2021/09/07 07:41:47;;;;;;;10.52;5.78;;;16.60;99.90;;;;;;5050412;28;20029;-71
2021/09/07 07:44:12;;;;;;;11.15;5.80;;;16.60;99.90;;;;;;5047945;28;20025;-70
2021/09/07 07:46:38;;;;;;;11.48;5.50;;;16.50;99.90;;;;;;5047607;28;20628;-71
2021/09/07 07:49:03;;;;;;;12.85;6.35;;;16.70;99.90;;;;;;5047834;28;20017;-71
2021/09/07 07:51:29;;;;;;;11.07;6.10;;;16.70;99.90;;;;;;5048438;28;20033;-71
2021/09/07 07:53:54;;;;;;;12.60;5.93;;;17.00;99.90;;;;;;5044961;28;20112;-71
2021/09/07 07:56:25;;;;;;;15.52;6.45;;;16.80;99.90;;;;;;5048790;28;20079;-71
2021/09/07 07:58:51;;;;;;;14.57;6.55;;;16.80;99.90;;;;;;5048455;28;20029;-70
2021/09/07 08:01:19;;;;;;;10.73;6.10;;;17.00;99.90;;;;;;5047466;28;20044;-70
2021/09/07 08:03:46;;;;;;;13.70;6.28;;;17.00;99.90;;;;;;5047005;28;20028;-71
2021/09/07 08:06:12;;;;;;;17.65;5.85;;;17.20;99.90;;;;;;5044319;28;20028;-70
2021/09/07 08:08:38;;;;;;;12.50;5.70;;;17.40;99.90;;;;;;5047951;28;20025;-71
2021/09/07 08:11:03;;;;;;;11.88;6.13;;;17.20;99.90;;;;;;5046369;28;20029;-71
2021/09/07 08:13:29;;;;;;;12.80;6.93;;;17.30;99.90;;;;;;5058969;28;20111;-71
2021/09/07 08:16:04;;;;;;;13.30;6.25;;;17.40;99.90;;;;;;5051590;28;20025;-70
2021/09/07 08:18:29;;;;;;;13.25;6.53;;;17.60;99.90;;;;;;5046431;28;20360;-71
2021/09/07 08:20:56;;;;;;;10.65;6.25;;;17.80;99.90;;;;;;5042761;28;20391;-70
2021/09/07 08:23:21;;;;;;;13.70;6.50;;;17.60;99.90;;;;;;5046721;28;20035;-70
2021/09/07 08:25:47;;;;;;;14.27;6.65;;;18.00;99.90;;;;;;5041579;28;20021;-71
2021/09/07 08:28:13;;;;;;;12.30;6.43;;;17.80;99.90;;;;;;5042360;28;20017;-71
2021/09/07 08:30:38;;;;;;;11.18;6.55;;;17.90;99.90;;;;;;5043772;28;20060;-71
2021/09/07 08:33:10;;;;;;;11.02;5.60;;;17.90;99.90;;;;;;5040393;28;20108;-71
2021/09/07 08:35:35;;;;;;;;;;;18.20;99.90;;;;;;5048055;28;20040;-70
2021/09/07 08:38:00;;;;;;;13.40;6.07;;;18.30;99.90;;;;;;5047630;28;19908;-71
2021/09/07 08:40:26;;;;;;;12.68;6.80;;;18.30;99.90;;;;;;5046933;28;20594;-70
2021/09/07 08:42:51;;;;;;;16.58;6.03;;;18.40;99.90;;;;;;5045822;28;20510;-71
2021/09/07 08:45:17;;;;;;;12.63;6.25;;;18.30;99.90;;;;;;5046282;28;20499;-71
2021/09/07 08:47:44;;;;;;;12.32;6.05;;;18.50;99.90;;;;;;5045817;28;20071;-70
2021/09/07 08:50:12;;;;;;;10.77;5.78;;;18.40;99.90;;;;;;5046046;28;20041;-71
2021/09/07 08:52:37;;;;;;;16.33;5.95;;;18.40;99.90;;;;;;5048072;28;20430;-70
2021/09/07 08:55:03;;;;;;;10.93;6.70;;;18.50;99.90;;;;;;5050550;28;20526;-71
2021/09/07 08:57:30;;;;;;;11.90;6.05;;;18.70;99.90;;;;;;5047660;28;20064;-71
2021/09/07 09:00:03;;;;;;;12.43;5.80;;;18.50;99.90;;;;;;5040249;28;20112;-71
2021/09/07 09:02:43;;;;;;;11.10;6.22;;;18.60;99.90;;;;;;5048008;28;20043;-70
2021/09/07 09:05:09;;;;;;;11.80;6.25;;;18.70;99.90;;;;;;5047865;28;20071;-71
2021/09/07 09:07:35;;;;;;;13.52;5.72;;;18.80;99.90;;;;;;5047146;28;20086;-71
2021/09/07 09:10:00;;;;;;;9.15;5.53;;;19.00;99.90;;;;;;5040942;28;20040;-71
2021/09/07 09:12:35;;;;;;;15.02;7.13;;;18.90;99.90;;;;;;5045328;28;20539;-71
2021/09/07 09:15:12;;;;;;;13.55;6.30;;;19.10;99.90;;;;;;5047352;28;20021;-71
2021/09/07 09:17:37;;;;;;;10.80;6.00;;;19.10;99.90;;;;;;5047161;28;20048;-70
2021/09/07 09:20:22;;;;;;;11.15;6.03;;;19.30;99.90;;;;;;5057932;28;20064;-70
2021/09/07 09:22:56;;;;;;;10.93;6.00;;;19.20;99.90;;;;;;5050025;28;20021;-78
2021/09/07 09:25:23;;;;;;;13.23;6.85;;;19.10;99.90;;;;;;5050176;28;20033;-70
2021/09/07 09:27:54;;;;;;;14.35;6.38;;;19.30;99.90;;;;;;5044438;28;20033;-70
2021/09/07 09:30:27;;;;;;;;;;;19.30;99.90;;;;;;5046819;28;20048;-70
2021/09/07 09:32:53;;;;;;;9.60;4.97;;;19.60;99.90;;;;;;5046419;28;19912;-70
2021/09/07 09:35:19;;;;;;;11.90;6.05;;;19.60;99.90;;;;;;5046555;28;20033;-70
2021/09/07 09:37:57;;;;;;;12.23;6.50;;;19.40;99.90;;;;;;5047003;28;20025;-70
2021/09/07 09:40:24;;;;;;;11.68;5.82;;;19.70;99.90;;;;;;5048253;28;20065;-71
2021/09/07 09:42:50;;;;;;;10.13;5.68;;;19.70;99.90;;;;;;5049860;28;20028;-71
2021/09/07 09:45:16;;;;;;;10.70;5.85;;;19.80;99.90;;;;;;5049111;28;20025;-70
2021/09/07 09:47:51;;;;;;;7.97;4.72;;;19.70;99.10;;;;;;5048535;28;20071;-71
2021/09/07 09:50:18;;;;;;;11.35;6.68;;;20.00;99.70;;;;;;5049452;28;20491;-72
2021/09/07 09:52:47;;;;;;;7.72;4.85;;;20.00;99.80;;;;;;5048122;28;20053;-72
2021/09/07 09:55:15;;;;;;;10.82;6.10;;;19.80;99.90;;;;;;5049404;28;20035;-72
2021/09/07 09:57:41;;;;;;;10.75;6.05;;;19.90;99.90;;;;;;5049714;28;20055;-72
2021/09/07 10:00:10;;;;;;;11.95;5.65;;;20.10;99.90;;;;;;5049496;28;20372;-72
2021/09/07 10:02:37;;;;;;;10.82;5.65;;;20.00;99.90;;;;;;5050471;28;20222;-72
2021/09/07 10:05:03;;;;;;;10.50;5.82;;;20.00;99.90;;;;;;5049794;28;20057;-72
2021/09/07 10:07:29;;;;;;;11.93;6.25;;;20.10;99.90;;;;;;5049855;28;20415;-72
2021/09/07 10:09:57;;;;;;;11.23;5.75;;;20.20;99.90;;;;;;5049651;28;20024;-72
2021/09/07 10:12:41;;;;;;;9.38;5.40;;;20.40;98.70;;;;;;5050018;28;20383;-73
2021/09/07 10:23:27;;;;;;;10.63;4.78;;;20.60;97.30;;;;;;5049262;28;20021;-72
2021/09/07 10:25:57;;;;;;;8.85;5.10;;;20.90;97.40;;;;;;5049093;28;20037;-72
2021/09/07 10:28:32;;;;;;;8.65;5.22;;;20.80;95.00;;;;;;5050072;28;20244;-72
2021/09/07 10:31:03;;;;;;;10.55;4.60;;;21.20;95.30;;;;;;5049013;28;20033;-73
2021/09/07 10:33:30;;;;;;;17.58;5.10;;;21.30;95.30;;;;;;5044171;28;20126;-72
2021/09/07 10:36:19;;;;;;;10.75;4.60;;;21.10;93.70;;;;;;5049686;28;20025;-73
2021/09/07 10:38:46;;;;;;;8.80;4.78;;;21.30;94.40;;;;;;5043894;28;20024;-73
2021/09/07 10:41:35;;;;;;;7.70;4.68;;;21.80;93.20;;;;;;5059182;28;20029;-73
2021/09/07 10:44:07;;;;;;;11.55;4.68;;;21.80;92.70;;;;;;5048332;28;20066;-73
2021/09/07 10:46:58;;;;;;;8.75;4.43;;;22.20;92.60;;;;;;5048759;28;20499;-72
2021/09/07 10:49:33;;;;;;;10.20;4.57;;;22.30;92.90;;;;;;5061670;28;20477;-73
2021/09/07 10:52:04;;;;;;;6.30;3.90;;;22.40;93.40;;;;;;5069255;28;20109;-72
2021/09/07 10:54:31;;;;;;;12.57;4.63;;;22.70;92.50;;;;;;5048023;28;20029;-73
2021/09/07 10:56:58;;;;;;;13.23;4.45;;;22.80;92.50;;;;;;5043492;28;20483;-73
2021/09/07 10:59:47;;;;;;;7.18;4.47;;;22.80;92.50;;;;;;5049067;28;20060;-73
2021/09/07 11:02:40;;;;;;;8.68;4.80;;;22.90;92.60;;;;;;5038775;28;20058;-73
2021/09/07 11:05:08;;;;;;;7.22;4.22;;;22.50;92.10;;;;;;5047913;28;20115;-73
2021/09/07 11:07:43;;;;;;;8.85;4.75;;;22.40;91.70;;;;;;5063083;28;20056;-73
2021/09/07 11:10:14;;;;;;;9.35;5.10;;;22.60;90.70;;;;;;5052040;28;20037;-73
2021/09/07 11:12:48;;;;;;;8.18;4.50;;;22.50;91.70;;;;;;5049844;28;20037;-73
2021/09/07 11:15:14;;;;;;;11.02;4.60;;;22.70;90.70;;;;;;5057872;28;20503;-73
2021/09/07 11:17:54;;;;;;;6.97;4.55;;;22.80;90.90;;;;;;5046661;28;20035;-73
2021/09/07 11:20:26;;;;;;;11.68;4.43;;;22.80;91.80;;;;;;5048186;28;20053;-73
2021/09/07 11:22:53;;;;;;;14.30;5.30;;;22.60;90.30;;;;;;5048192;28;20479;-73
2021/09/07 11:25:21;;;;;;;8.20;4.30;;;22.50;91.60;;;;;;5049531;28;20080;-73
2021/09/07 11:27:51;;;;;;;7.53;4.80;;;22.70;90.70;;;;;;5048486;28;20395;-73
2021/09/07 11:30:32;;;;;;;9.25;5.22;;;22.80;91.40;;;;;;5047475;28;20056;-72
2021/09/07 11:33:10;;;;;;;8.18;5.10;;;22.90;90.70;;;;;;5040318;28;20789;-72
2021/09/07 11:35:45;;;;;;;6.88;4.57;;;22.70;90.80;;;;;;5045776;28;20024;-73
2021/09/07 11:38:14;;;;;;;7.68;4.50;;;22.70;88.60;;;;;;5043467;28;20472;-73
2021/09/07 11:40:45;;;;;;;8.60;4.45;;;22.40;88.70;;;;;;5047525;28;20041;-72
2021/09/07 11:43:11;;;;;;;15.75;5.68;;;22.50;90.00;;;;;;5044587;28;20674;-73
2021/09/07 11:45:37;;;;;;;6.07;4.72;;;22.60;90.80;;;;;;5047596;28;20518;-73
2021/09/07 11:48:05;;;;;;;9.95;5.10;;;23.00;89.70;;;;;;5047297;28;20052;-73
2021/09/07 11:50:36;;;;;;;11.68;5.55;;;23.00;89.00;;;;;;5036886;28;20037;-73
2021/09/07 11:53:03;;;;;;;;;;;22.70;90.50;;;;;;5047256;28;20112;-73
2021/09/07 11:55:36;;;;;;;10.77;5.18;;;22.70;91.60;;;;;;5047872;28;19909;-73
2021/09/07 11:58:03;;;;;;;9.23;5.32;;;22.30;91.90;;;;;;5041401;28;20044;-73
2021/09/07 12:00:28;;;;;;;9.85;5.20;;;22.20;92.90;;;;;;5045857;28;20137;-73
2021/09/07 12:03:13;;;;;;;12.65;5.40;;;22.40;92.70;;;;;;5043385;28;20487;-71
2021/09/07 12:05:57;;;;;;;9.63;5.15;;;22.40;92.30;;;;;;5037426;28;20418;-74
2021/09/07 12:08:38;;;;;;;8.38;5.13;;;22.30;92.10;;;;;;5047364;28;20033;-70
2021/09/07 12:11:05;;;;;;;12.50;5.13;;;22.90;91.90;;;;;;5047389;28;20395;-70
2021/09/07 12:13:32;;;;;;;7.88;4.75;;;23.70;90.80;;;;;;5048337;28;20395;-71
2021/09/07 12:15:59;;;;;;;8.10;4.80;;;24.80;90.70;;;;;;5045141;28;20033;-70
2021/09/07 12:18:26;;;;;;;7.82;4.38;;;25.90;83.20;;;;;;5042210;28;20033;-70
2021/09/07 12:21:06;;;;;;;6.85;4.68;;;26.60;79.20;;;;;;5045696;28;20061;-72
2021/09/07 12:23:34;;;;;;;7.45;4.57;;;27.20;74.40;;;;;;5035613;28;20045;-73
2021/09/07 12:26:01;;;;;;;7.28;4.25;;;27.60;72.20;;;;;;5043784;28;20021;-73
2021/09/07 12:28:26;;;;;;;14.50;5.55;;;28.00;70.20;;;;;;5042525;28;20036;-73
2021/09/07 12:31:08;;;;;;;8.23;4.75;;;28.40;68.50;;;;;;5044658;28;20033;-72
2021/09/07 12:33:40;;;;;;;8.40;5.13;;;28.60;66.20;;;;;;5046119;28;20044;-72
2021/09/07 12:36:06;;;;;;;11.23;5.22;;;29.00;65.40;;;;;;5044519;28;20036;-73
2021/09/07 12:38:32;;;;;;;8.05;5.22;;;28.90;65.50;;;;;;5043597;28;20403;-73
2021/09/07 12:41:03;;;;;;;9.77;5.80;;;29.10;64.80;;;;;;5034032;28;20056;-74
2021/09/07 12:43:34;;;;;;;6.85;5.15;;;29.20;64.40;;;;;;5033451;28;20719;-73
2021/09/07 12:46:02;;;;;;;7.90;5.15;;;29.60;64.50;;;;;;5045025;28;20021;-74
2021/09/07 12:48:31;;;;;;;8.18;5.35;;;30.10;61.50;;;;;;5044602;28;20514;-74